createdAt,value
2022-08-25T00:01:57.992Z,18.57
2022-08-25T00:04:25.940Z,18.52
2022-08-25T00:06:58.256Z,18.48
2022-08-25T00:09:28.423Z,18.47
2022-08-25T00:11:55.253Z,18.46
2022-08-25T00:14:31.445Z,18.46
2022-08-25T00:16:58.265Z,18.43
2022-08-25T00:19:30.059Z,18.44
2022-08-25T00:21:56.862Z,18.39
2022-08-25T00:24:24.631Z,18.37
2022-08-25T00:26:55.049Z,18.37
2022-08-25T00:29:24.244Z,18.35
2022-08-25T00:31:52.414Z,18.32
2022-08-25T00:34:23.343Z,18.27
2022-08-25T00:36:53.539Z,18.23
2022-08-25T00:39:23.129Z,18.20
2022-08-25T00:41:53.156Z,18.17
2022-08-25T00:44:20.567Z,18.18
2022-08-25T00:46:56.381Z,18.13
2022-08-25T00:49:28.948Z,18.14
2022-08-25T00:52:07.409Z,18.14
2022-08-25T00:54:56.651Z,18.12
2022-08-25T00:57:34.425Z,18.09
2022-08-25T01:00:08.548Z,18.08
2022-08-25T01:02:35.509Z,18.08
2022-08-25T01:05:03.120Z,18.06
2022-08-25T01:07:29.966Z,18.07
2022-08-25T01:09:56.781Z,18.06
2022-08-25T01:12:23.524Z,18.03
2022-08-25T01:14:51.572Z,18.01
2022-08-25T01:17:18.479Z,18.00
2022-08-25T01:19:45.249Z,17.98
2022-08-25T01:22:12.355Z,17.93
2022-08-25T01:25:05.149Z,17.90
2022-08-25T01:27:31.964Z,17.85
2022-08-25T01:29:59.041Z,17.82
2022-08-25T01:32:26.187Z,17.83
2022-08-25T01:34:53.026Z,17.82
2022-08-25T01:37:20.660Z,17.86
2022-08-25T01:39:48.031Z,17.88
2022-08-25T01:42:33.555Z,17.84
2022-08-25T01:45:00.342Z,17.84
2022-08-25T01:47:27.128Z,17.84
2022-08-25T01:49:53.888Z,17.82
2022-08-25T01:52:21.357Z,17.82
2022-08-25T01:54:48.683Z,17.83
2022-08-25T01:57:15.658Z,17.90
2022-08-25T01:59:42.863Z,18.01
2022-08-25T02:02:09.783Z,18.10
2022-08-25T02:04:38.109Z,18.14
2022-08-25T02:07:07.558Z,18.14
2022-08-25T02:09:36.016Z,18.14
2022-08-25T02:12:03.939Z,18.09
2022-08-25T02:14:30.957Z,18.00
2022-08-25T02:16:57.822Z,17.88
2022-08-25T02:19:26.466Z,17.82
2022-08-25T02:21:53.872Z,17.80
2022-08-25T02:24:21.309Z,17.74
2022-08-25T02:26:48.528Z,17.72
2022-08-25T02:29:16.878Z,17.68
2022-08-25T02:31:44.658Z,17.65
2022-08-25T02:34:12.132Z,17.61
2022-08-25T02:36:39.100Z,17.53
2022-08-25T02:39:08.906Z,17.52
2022-08-25T02:41:36.692Z,17.52
2022-08-25T02:44:04.988Z,17.50
2022-08-25T02:46:31.917Z,17.46
2022-08-25T02:48:59.132Z,17.48
2022-08-25T02:51:30.013Z,17.47
2022-08-25T02:53:59.284Z,17.44
2022-08-25T02:56:27.100Z,17.46
2022-08-25T02:58:54.524Z,17.47
2022-08-25T03:01:21.987Z,17.44
2022-08-25T03:03:52.415Z,17.42
2022-08-25T03:06:23.290Z,17.42
2022-08-25T03:08:50.717Z,17.30
2022-08-25T03:11:18.065Z,17.25
2022-08-25T03:13:45.250Z,17.17
2022-08-25T03:16:12.461Z,17.15
2022-08-25T03:18:41.982Z,17.16
2022-08-25T03:21:11.512Z,17.18
2022-08-25T03:23:39.722Z,17.18
2022-08-25T03:26:25.427Z,17.11
2022-08-25T03:28:52.577Z,17.02
2022-08-25T03:31:19.399Z,16.95
2022-08-25T03:33:46.228Z,16.87
2022-08-25T03:36:13.765Z,16.83
2022-08-25T03:38:41.775Z,16.81
2022-08-25T03:41:23.890Z,16.78
2022-08-25T03:43:55.347Z,16.76
2022-08-25T03:46:31.722Z,16.74
2022-08-25T03:49:01.194Z,16.73
2022-08-25T03:51:38.280Z,16.70
2022-08-25T03:54:05.543Z,16.69
2022-08-25T03:56:32.795Z,16.67
2022-08-25T03:58:59.632Z,16.60
2022-08-25T04:01:26.590Z,16.53
2022-08-25T04:03:53.493Z,16.49
2022-08-25T04:06:20.592Z,16.47
2022-08-25T04:08:47.936Z,16.46
2022-08-25T04:11:18.647Z,16.44
2022-08-25T04:13:46.731Z,16.41
2022-08-25T04:16:20.381Z,16.41
2022-08-25T04:18:48.407Z,16.39
2022-08-25T04:21:16.476Z,16.39
2022-08-25T04:23:46.001Z,16.38
2022-08-25T04:26:16.965Z,16.36
2022-08-25T04:28:43.855Z,16.35
2022-08-25T04:31:12.609Z,16.37
2022-08-25T04:33:39.688Z,16.43
2022-08-25T04:36:12.196Z,16.49
2022-08-25T04:38:41.001Z,16.54
2022-08-25T04:41:10.033Z,16.59
2022-08-25T04:43:38.087Z,16.60
2022-08-25T04:46:23.786Z,16.65
2022-08-25T04:48:52.695Z,16.74
2022-08-25T04:51:23.504Z,16.82
2022-08-25T04:53:51.446Z,16.90
2022-08-25T04:56:21.643Z,17.04
2022-08-25T04:58:48.442Z,17.14
2022-08-25T05:01:18.664Z,17.17
2022-08-25T05:03:47.602Z,17.25
2022-08-25T05:06:16.165Z,17.34
2022-08-25T05:08:45.933Z,17.47
2022-08-25T05:11:17.394Z,17.50
2022-08-25T05:13:51.654Z,17.51
2022-08-25T05:16:20.329Z,17.51
2022-08-25T05:18:47.655Z,17.57
2022-08-25T05:21:21.776Z,17.62
2022-08-25T05:23:48.991Z,17.65
2022-08-25T05:26:21.277Z,17.77
2022-08-25T05:28:52.932Z,17.86
2022-08-25T05:31:20.829Z,18.01
2022-08-25T05:33:48.197Z,18.12
2022-08-25T05:36:15.202Z,18.24
2022-08-25T05:38:42.576Z,18.37
2022-08-25T05:41:13.265Z,18.47
2022-08-25T05:43:41.986Z,18.54
2022-08-25T05:46:09.408Z,18.61
2022-08-25T05:48:36.708Z,18.70
2022-08-25T05:51:05.832Z,18.77
2022-08-25T05:53:35.070Z,18.88
2022-08-25T05:56:02.429Z,19.00
2022-08-25T05:58:30.198Z,19.11
2022-08-25T06:01:18.800Z,19.25
2022-08-25T06:03:47.631Z,19.41
2022-08-25T06:06:15.955Z,19.69
2022-08-25T06:08:48.879Z,20.18
2022-08-25T06:11:16.523Z,20.70
2022-08-25T06:13:43.351Z,21.26
2022-08-25T06:16:10.318Z,21.69
2022-08-25T06:18:37.189Z,21.92
2022-08-25T06:21:08.947Z,22.45
2022-08-25T06:23:36.981Z,22.66
2022-08-25T06:26:04.033Z,22.86
2022-08-25T06:28:30.817Z,22.94
2022-08-25T06:31:01.888Z,23.26
2022-08-25T06:33:29.305Z,23.63
2022-08-25T06:35:56.862Z,23.79
2022-08-25T06:38:24.414Z,23.81
2022-08-25T06:40:52.443Z,23.91
2022-08-25T06:43:21.370Z,24.22
2022-08-25T06:45:48.516Z,24.04
2022-08-25T06:48:16.046Z,24.35
2022-08-25T06:50:44.575Z,24.67
2022-08-25T06:53:12.052Z,24.83
2022-08-25T06:55:39.358Z,24.65
2022-08-25T06:58:07.307Z,24.53
2022-08-25T07:00:38.730Z,24.93
2022-08-25T07:03:05.843Z,25.25
2022-08-25T07:05:43.505Z,25.64
2022-08-25T07:08:11.967Z,25.43
2022-08-25T07:10:39.127Z,26.00
2022-08-25T07:13:05.921Z,25.79
2022-08-25T07:15:32.783Z,25.85
2022-08-25T07:17:59.559Z,26.02
2022-08-25T07:22:58.146Z,26.55
2022-08-25T07:25:25.034Z,26.39
2022-08-25T07:27:54.835Z,26.60
2022-08-25T07:30:25.257Z,27.09
2022-08-25T07:32:55.172Z,27.55
2022-08-25T07:35:26.283Z,27.90
2022-08-25T07:37:57.077Z,27.58
2022-08-25T07:40:32.686Z,27.69
2022-08-25T07:43:02.400Z,27.48
2022-08-25T07:45:32.437Z,27.79
2022-08-25T07:48:10.589Z,28.12
2022-08-25T07:50:42.380Z,28.11
2022-08-25T07:53:10.179Z,28.09
2022-08-25T07:55:38.296Z,28.16
2022-08-25T07:58:08.169Z,28.44
2022-08-25T08:00:37.595Z,28.84
2022-08-25T08:03:12.974Z,28.85
2022-08-25T08:05:46.967Z,28.06
2022-08-25T08:08:16.385Z,28.00
2022-08-25T08:11:03.311Z,28.42
2022-08-25T08:13:36.816Z,29.20
2022-08-25T08:16:10.286Z,28.69
2022-08-25T08:18:38.929Z,29.42
2022-08-25T08:21:11.314Z,29.04
2022-08-25T08:23:38.350Z,28.59
2022-08-25T08:26:05.399Z,28.21
2022-08-25T08:28:32.853Z,28.63
2022-08-25T08:30:59.813Z,29.54
2022-08-25T08:33:27.657Z,29.17
2022-08-25T08:36:07.313Z,29.70
2022-08-25T08:38:35.848Z,30.39
2022-08-25T08:41:30.543Z,30.85
2022-08-25T08:44:15.747Z,30.64
2022-08-25T08:47:12.727Z,31.04
2022-08-25T08:50:21.609Z,30.83
2022-08-25T08:52:57.725Z,30.62
2022-08-25T08:55:40.311Z,31.52
2022-08-25T08:58:20.588Z,31.20
2022-08-25T09:00:58.226Z,30.84
2022-08-25T09:03:36.909Z,30.57
2022-08-25T09:06:22.489Z,30.25
2022-08-25T09:08:49.833Z,30.53
2022-08-25T09:11:24.142Z,30.33
2022-08-25T09:14:18.134Z,30.36
2022-08-25T09:16:57.600Z,30.52
2022-08-25T09:19:31.382Z,29.88
2022-08-25T09:22:33.441Z,30.32
2022-08-25T09:25:29.407Z,30.27
2022-08-25T09:28:16.583Z,30.17
2022-08-25T09:30:54.390Z,29.76
2022-08-25T09:33:23.938Z,30.10
2022-08-25T09:35:53.827Z,29.96
2022-08-25T09:38:21.404Z,29.59
2022-08-25T09:40:51.842Z,30.69
2022-08-25T09:43:44.905Z,31.31
2022-08-25T09:46:15.144Z,30.61
2022-08-25T09:48:41.900Z,31.22
2022-08-25T09:51:24.399Z,31.20
2022-08-25T09:53:56.102Z,31.04
2022-08-25T09:56:26.590Z,31.20
2022-08-25T09:58:54.283Z,31.62
2022-08-25T10:01:23.533Z,31.73
2022-08-25T10:03:56.515Z,31.74
2022-08-25T10:06:23.812Z,32.35
2022-08-25T10:08:51.393Z,31.82
2022-08-25T10:11:34.840Z,32.23
2022-08-25T10:14:14.997Z,32.55
2022-08-25T10:16:41.845Z,32.31
2022-08-25T10:19:27.519Z,32.26
2022-08-25T10:22:24.287Z,31.69
2022-08-25T10:24:51.396Z,30.50
2022-08-25T10:27:39.414Z,31.08
2022-08-25T10:30:17.821Z,30.71
2022-08-25T10:33:03.438Z,31.28
2022-08-25T10:36:05.706Z,31.09
2022-08-25T10:39:01.609Z,31.77
2022-08-25T10:41:28.602Z,31.87
2022-08-25T10:44:36.872Z,31.02
2022-08-25T10:47:41.119Z,30.83
2022-08-25T10:50:33.584Z,30.48
2022-08-25T10:53:39.045Z,31.61
2022-08-25T10:56:12.196Z,32.53
2022-08-25T10:59:16.540Z,32.66
2022-08-25T11:02:01.757Z,32.69
2022-08-25T11:05:12.775Z,32.07
2022-08-25T11:07:52.081Z,31.96
2022-08-25T11:10:36.539Z,33.39
2022-08-25T11:13:11.323Z,34.59
2022-08-25T11:16:19.587Z,33.91
2022-08-25T11:19:05.579Z,32.81
2022-08-25T11:21:47.343Z,33.25
2022-08-25T11:24:18.263Z,33.15
2022-08-25T11:26:53.529Z,32.67
2022-08-25T11:29:22.674Z,32.87
2022-08-25T11:31:54.125Z,33.35
2022-08-25T11:34:22.493Z,32.36
2022-08-25T11:37:07.809Z,33.21
2022-08-25T11:39:47.156Z,32.33
2022-08-25T11:42:21.650Z,32.76
2022-08-25T11:45:07.765Z,33.96
2022-08-25T11:47:35.072Z,33.77
2022-08-25T11:50:06.272Z,34.57
2022-08-25T11:52:33.006Z,33.05
2022-08-25T11:55:43.619Z,34.13
2022-08-25T11:58:41.026Z,34.38
2022-08-25T12:01:31.269Z,33.10
2022-08-25T12:04:44.964Z,33.47
2022-08-25T12:07:19.764Z,32.90
2022-08-25T12:09:53.843Z,33.30
2022-08-25T12:12:37.168Z,34.84
2022-08-25T12:15:26.131Z,34.90
2022-08-25T12:18:12.640Z,33.54
2022-08-25T12:20:56.314Z,34.70
2022-08-25T12:23:44.900Z,35.65
2022-08-25T12:27:06.495Z,33.81
2022-08-25T12:29:42.240Z,34.13
2022-08-25T12:32:18.242Z,34.01
2022-08-25T12:34:54.261Z,35.48
2022-08-25T12:37:23.941Z,35.82
2022-08-25T12:39:50.841Z,35.06
2022-08-25T12:42:29.443Z,34.17
2022-08-25T12:45:21.030Z,34.58
2022-08-25T12:47:49.969Z,34.44
2022-08-25T12:50:35.676Z,35.30
2022-08-25T12:53:15.506Z,34.76
2022-08-25T12:55:48.627Z,36.00
2022-08-25T12:58:16.257Z,35.56
2022-08-25T13:01:17.420Z,35.75
2022-08-25T13:04:35.232Z,35.24
2022-08-25T13:07:17.141Z,35.40
2022-08-25T13:10:01.051Z,35.94
2022-08-25T13:12:49.728Z,35.42
2022-08-25T13:15:34.205Z,34.38
2022-08-25T13:18:21.783Z,35.47
2022-08-25T13:21:01.436Z,33.50
2022-08-25T13:23:30.215Z,35.26
2022-08-25T13:25:58.389Z,34.75
2022-08-25T13:28:40.772Z,35.38
2022-08-25T13:31:19.039Z,37.24
2022-08-25T13:33:55.911Z,37.46
2022-08-25T13:36:47.046Z,36.25
2022-08-25T13:39:45.366Z,36.83
2022-08-25T13:42:16.674Z,36.72
2022-08-25T13:44:51.952Z,36.14
2022-08-25T13:47:45.379Z,33.81
2022-08-25T13:50:22.615Z,34.20
2022-08-25T13:52:56.906Z,35.04
2022-08-25T13:55:29.883Z,35.10
2022-08-25T13:58:12.788Z,35.86
2022-08-25T14:00:48.668Z,34.10
2022-08-25T14:03:34.688Z,35.81
2022-08-25T14:06:25.820Z,36.79
2022-08-25T14:08:55.562Z,36.90
2022-08-25T14:11:33.307Z,36.02
2022-08-25T14:14:03.118Z,36.22
2022-08-25T14:16:36.258Z,35.06
2022-08-25T14:19:04.510Z,35.75
2022-08-25T14:21:34.605Z,36.02
2022-08-25T14:24:01.595Z,37.22
2022-08-25T14:26:28.982Z,35.26
2022-08-25T14:28:57.550Z,34.42
2022-08-25T14:31:28.445Z,36.06
2022-08-25T14:34:05.687Z,36.68
2022-08-25T14:36:34.374Z,37.43
2022-08-25T14:39:05.907Z,36.94
2022-08-25T14:41:41.104Z,37.79
2022-08-25T14:44:10.070Z,37.44
2022-08-25T14:46:49.248Z,37.56
2022-08-25T14:49:24.977Z,36.91
2022-08-25T14:51:52.172Z,35.71
2022-08-25T14:54:23.501Z,34.75
2022-08-25T14:56:50.913Z,35.27
2022-08-25T14:59:18.509Z,35.70
2022-08-25T15:01:46.003Z,37.41
2022-08-25T15:04:28.399Z,36.33
2022-08-25T15:06:58.263Z,35.01
2022-08-25T15:09:25.136Z,35.17
2022-08-25T15:12:00.110Z,35.21
2022-08-25T15:14:28.821Z,36.50
2022-08-25T15:17:01.766Z,36.00
2022-08-25T15:19:29.214Z,36.07
2022-08-25T15:21:58.030Z,37.76
2022-08-25T15:24:27.393Z,37.88
2022-08-25T15:26:58.479Z,38.24
2022-08-25T15:29:29.221Z,37.66
2022-08-25T15:31:56.733Z,35.28
2022-08-25T15:34:23.528Z,34.94
2022-08-25T15:36:50.936Z,35.71
2022-08-25T15:39:19.226Z,36.83
2022-08-25T15:41:52.545Z,37.59
2022-08-25T15:44:20.210Z,37.10
2022-08-25T15:46:50.034Z,36.29
2022-08-25T15:49:23.188Z,33.76
2022-08-25T15:51:52.464Z,31.56
2022-08-25T15:54:20.737Z,31.36
2022-08-25T15:56:48.000Z,31.31
2022-08-25T15:59:15.432Z,31.32
2022-08-25T16:01:44.407Z,31.32
2022-08-25T16:04:14.465Z,31.07
2022-08-25T16:06:41.780Z,30.58
2022-08-25T16:09:08.679Z,30.49
2022-08-25T16:11:35.640Z,30.10
2022-08-25T16:14:06.420Z,30.21
2022-08-25T16:16:33.631Z,30.44
2022-08-25T16:19:02.401Z,30.46
2022-08-25T16:21:33.080Z,30.42
2022-08-25T16:24:05.434Z,30.37
2022-08-25T16:26:36.452Z,30.47
2022-08-25T16:29:06.453Z,30.57
2022-08-25T16:31:33.696Z,30.37
2022-08-25T16:34:01.513Z,30.39
2022-08-25T16:36:29.015Z,30.28
2022-08-25T16:38:57.713Z,30.10
2022-08-25T16:41:29.245Z,29.69
2022-08-25T16:43:58.693Z,29.39
2022-08-25T16:46:25.766Z,29.20
2022-08-25T16:48:53.360Z,28.75
2022-08-25T16:51:22.710Z,28.45
2022-08-25T16:54:15.942Z,28.44
2022-08-25T16:56:53.750Z,28.31
2022-08-25T16:59:23.523Z,28.21
2022-08-25T17:01:51.423Z,28.14
2022-08-25T17:04:18.320Z,28.11
2022-08-25T17:06:51.778Z,28.02
2022-08-25T17:09:23.975Z,27.78
2022-08-25T17:11:52.649Z,27.69
2022-08-25T17:14:21.871Z,27.65
2022-08-25T17:16:51.069Z,27.61
2022-08-25T17:19:18.580Z,27.41
2022-08-25T17:21:49.962Z,27.31
2022-08-25T17:24:17.345Z,27.16
2022-08-25T17:26:46.343Z,27.04
2022-08-25T17:29:13.404Z,26.94
2022-08-25T17:31:40.641Z,26.81
2022-08-25T17:34:10.390Z,26.62
2022-08-25T17:36:38.513Z,26.46
2022-08-25T17:39:07.834Z,26.41
2022-08-25T17:41:34.939Z,26.38
2022-08-25T17:44:05.405Z,26.27
2022-08-25T17:46:32.937Z,26.09
2022-08-25T17:48:59.906Z,26.02
2022-08-25T17:51:26.755Z,25.93
2022-08-25T17:53:56.452Z,25.79
2022-08-25T17:56:24.942Z,25.63
2022-08-25T17:58:55.471Z,25.56
2022-08-25T18:01:28.372Z,25.45
2022-08-25T18:03:57.493Z,25.36
2022-08-25T18:06:24.988Z,25.19
2022-08-25T18:08:56.363Z,25.00
2022-08-25T18:11:26.261Z,24.90
2022-08-25T18:13:54.289Z,24.69
2022-08-25T18:16:22.003Z,24.53
2022-08-25T18:18:49.240Z,24.39
2022-08-25T18:21:17.886Z,24.31
2022-08-25T18:23:45.703Z,24.30
2022-08-25T18:26:14.536Z,24.23
2022-08-25T18:28:43.870Z,24.12
2022-08-25T18:31:13.295Z,24.00
2022-08-25T18:33:44.788Z,23.84
2022-08-25T18:36:12.591Z,23.66
2022-08-25T18:38:59.410Z,23.49
2022-08-25T18:41:28.761Z,23.40
2022-08-25T18:43:55.584Z,23.39
2022-08-25T18:46:22.942Z,23.36
2022-08-25T18:48:52.743Z,23.41
2022-08-25T18:51:23.012Z,23.37
2022-08-25T18:53:51.260Z,23.33
2022-08-25T18:56:22.666Z,23.28
2022-08-25T18:58:49.497Z,23.17
2022-08-25T19:01:19.019Z,23.13
2022-08-25T19:03:46.212Z,23.06
2022-08-25T19:06:13.523Z,23.02
2022-08-25T19:08:42.196Z,22.99
2022-08-25T19:11:10.071Z,22.82
2022-08-25T19:13:38.146Z,22.69
2022-08-25T19:16:17.810Z,22.53
2022-08-25T19:18:48.667Z,22.43
2022-08-25T19:21:15.781Z,22.33
2022-08-25T19:23:42.587Z,22.25
2022-08-25T19:26:16.891Z,22.16
2022-08-25T19:28:48.923Z,22.10
2022-08-25T19:31:24.395Z,22.02
2022-08-25T19:33:54.404Z,21.95
2022-08-25T19:36:27.998Z,21.85
2022-08-25T19:38:58.511Z,21.79
2022-08-25T19:41:27.706Z,21.75
2022-08-25T19:43:57.239Z,21.74
2022-08-25T19:46:33.082Z,21.75
2022-08-25T19:49:07.972Z,21.72
2022-08-25T19:51:41.165Z,21.68
2022-08-25T19:54:15.087Z,21.62
2022-08-25T19:56:43.572Z,21.55
2022-08-25T19:59:21.097Z,21.49
2022-08-25T20:01:50.165Z,21.39
2022-08-25T20:04:17.025Z,21.25
2022-08-25T20:06:44.074Z,21.37
2022-08-25T20:09:35.662Z,21.42
2022-08-25T20:12:03.013Z,21.45
2022-08-25T20:14:29.974Z,21.48
2022-08-25T20:16:56.977Z,21.49
2022-08-25T20:19:23.970Z,21.51
2022-08-25T20:21:50.726Z,21.49
2022-08-25T20:24:36.175Z,21.50
2022-08-25T20:27:04.198Z,21.52
2022-08-25T20:29:31.794Z,21.48
2022-08-25T20:31:59.596Z,21.42
2022-08-25T20:34:29.182Z,21.35
2022-08-25T20:36:59.337Z,21.27
2022-08-25T20:39:26.149Z,21.23
2022-08-25T20:41:53.368Z,21.16
2022-08-25T20:44:20.170Z,21.10
2022-08-25T20:46:51.634Z,21.06
2022-08-25T20:49:21.593Z,21.08
2022-08-25T20:51:48.398Z,21.10
2022-08-25T20:54:18.837Z,21.06
2022-08-25T20:56:45.761Z,21.03
2022-08-25T20:59:13.814Z,20.99
2022-08-25T21:01:42.383Z,20.98
2022-08-25T21:04:14.812Z,20.90
2022-08-25T21:06:42.590Z,20.80
2022-08-25T21:09:15.788Z,20.74
2022-08-25T21:11:45.077Z,20.63
2022-08-25T21:14:13.406Z,20.60
2022-08-25T21:16:41.712Z,20.55
2022-08-25T21:19:10.943Z,20.57
2022-08-25T21:21:38.840Z,20.60
2022-08-25T21:24:09.842Z,20.60
2022-08-25T21:26:48.627Z,20.62
2022-08-25T21:29:17.847Z,20.64
2022-08-25T21:31:45.957Z,20.63
2022-08-25T21:34:17.184Z,20.68
2022-08-25T21:36:46.641Z,20.69
2022-08-25T21:39:14.630Z,20.66
2022-08-25T21:41:45.599Z,20.68
2022-08-25T21:44:13.833Z,20.68
2022-08-25T21:46:41.234Z,20.67
2022-08-25T21:49:08.737Z,20.64
2022-08-25T21:51:40.808Z,20.59
2022-08-25T21:54:11.165Z,20.54
2022-08-25T21:56:42.315Z,20.50
2022-08-25T21:59:13.519Z,20.49
2022-08-25T22:01:41.536Z,20.42
2022-08-25T22:04:10.375Z,20.36
2022-08-25T22:06:39.158Z,20.30
2022-08-25T22:09:08.390Z,20.23
2022-08-25T22:11:36.262Z,20.18
2022-08-25T22:14:03.702Z,20.21
2022-08-25T22:16:33.504Z,20.23
2022-08-25T22:19:00.972Z,20.21
2022-08-25T22:21:29.533Z,20.18
2022-08-25T22:23:56.367Z,20.10
2022-08-25T22:26:24.168Z,20.04
2022-08-25T22:28:54.537Z,20.00
2022-08-25T22:31:21.499Z,19.92
2022-08-25T22:33:49.541Z,19.83
2022-08-25T22:36:22.329Z,19.80
2022-08-25T22:38:49.205Z,19.85
2022-08-25T22:41:19.080Z,20.01
2022-08-25T22:43:52.918Z,20.19
2022-08-25T22:46:21.502Z,20.11
2022-08-25T22:48:50.326Z,20.04
2022-08-25T22:51:21.089Z,19.94
2022-08-25T22:53:49.350Z,20.05
2022-08-25T22:56:18.961Z,20.16
2022-08-25T22:58:52.092Z,20.32
2022-08-25T23:01:20.589Z,20.39
2022-08-25T23:03:47.884Z,20.45
2022-08-25T23:06:24.641Z,20.39
2022-08-25T23:08:53.820Z,20.30
2022-08-25T23:11:22.468Z,20.27
2022-08-25T23:13:49.603Z,20.35
2022-08-25T23:16:17.904Z,20.35
2022-08-25T23:18:46.784Z,20.27
2022-08-25T23:21:35.025Z,20.16
2022-08-25T23:24:05.701Z,20.08
2022-08-25T23:26:33.881Z,20.15
2022-08-25T23:29:00.897Z,20.14
2022-08-25T23:31:30.354Z,20.08
2022-08-25T23:33:58.088Z,20.09
2022-08-25T23:36:25.711Z,20.11
2022-08-25T23:38:52.682Z,20.09
2022-08-25T23:41:23.299Z,20.02
2022-08-25T23:43:50.942Z,20.00
2022-08-25T23:46:21.396Z,19.91
2022-08-25T23:48:49.337Z,19.81
2022-08-25T23:51:30.173Z,19.72
2022-08-25T23:53:57.852Z,19.67
2022-08-25T23:56:26.216Z,19.55
2022-08-25T23:58:55.609Z,19.50
